sensor_id;sensor_type;location;lat;lon;timestamp;temperature;humidity
4596;DHT22;2310;49.978;8.742;2023-06-04T00:00:40;16.80;50.20
4596;DHT22;2310;49.978;8.742;2023-06-04T00:04:41;16.70;50.50
4596;DHT22;2310;49.978;8.742;2023-06-04T00:08:42;16.60;50.60
4596;DHT22;2310;49.978;8.742;2023-06-04T00:12:43;16.80;50.50
4596;DHT22;2310;49.978;8.742;2023-06-04T00:16:45;16.70;50.30
4596;DHT22;2310;49.978;8.742;2023-06-04T00:20:46;16.60;50.40
4596;DHT22;2310;49.978;8.742;2023-06-04T00:24:47;16.60;50.40
4596;DHT22;2310;49.978;8.742;2023-06-04T00:28:48;16.70;50.60
4596;DHT22;2310;49.978;8.742;2023-06-04T00:32:49;16.60;50.60
4596;DHT22;2310;49.978;8.742;2023-06-04T00:36:51;16.50;50.80
4596;DHT22;2310;49.978;8.742;2023-06-04T00:40:52;16.60;50.80
4596;DHT22;2310;49.978;8.742;2023-06-04T00:44:53;16.50;50.80
4596;DHT22;2310;49.978;8.742;2023-06-04T00:48:56;16.40;51.00
4596;DHT22;2310;49.978;8.742;2023-06-04T00:52:58;16.30;51.80
4596;DHT22;2310;49.978;8.742;2023-06-04T00:56:59;16.30;52.20
4596;DHT22;2310;49.978;8.742;2023-06-04T01:01:02;16.30;52.50
4596;DHT22;2310;49.978;8.742;2023-06-04T01:09:26;16.00;53.50
4596;DHT22;2310;49.978;8.742;2023-06-04T01:13:28;16.00;53.90
4596;DHT22;2310;49.978;8.742;2023-06-04T01:17:37;15.90;54.10
4596;DHT22;2310;49.978;8.742;2023-06-04T01:21:37;16.00;54.10
4596;DHT22;2310;49.978;8.742;2023-06-04T01:25:40;15.90;54.90
4596;DHT22;2310;49.978;8.742;2023-06-04T01:29:47;15.90;55.10
4596;DHT22;2310;49.978;8.742;2023-06-04T01:33:56;15.80;55.10
4596;DHT22;2310;49.978;8.742;2023-06-04T01:37:58;15.70;56.10
4596;DHT22;2310;49.978;8.742;2023-06-04T01:42:00;15.70;56.20
4596;DHT22;2310;49.978;8.742;2023-06-04T01:46:02;15.80;56.80
4596;DHT22;2310;49.978;8.742;2023-06-04T01:50:05;15.80;56.70
4596;DHT22;2310;49.978;8.742;2023-06-04T01:54:09;15.50;57.40
4596;DHT22;2310;49.978;8.742;2023-06-04T01:58:10;15.40;58.90
4596;DHT22;2310;49.978;8.742;2023-06-04T02:02:11;15.40;59.30
4596;DHT22;2310;49.978;8.742;2023-06-04T02:06:12;15.40;59.80
4596;DHT22;2310;49.978;8.742;2023-06-04T02:10:16;15.40;60.20
4596;DHT22;2310;49.978;8.742;2023-06-04T02:14:17;15.30;60.50
4596;DHT22;2310;49.978;8.742;2023-06-04T02:18:20;15.30;60.80
4596;DHT22;2310;49.978;8.742;2023-06-04T02:22:25;15.20;61.70
4596;DHT22;2310;49.978;8.742;2023-06-04T02:26:27;15.20;63.00
4596;DHT22;2310;49.978;8.742;2023-06-04T02:30:28;15.20;64.50
4596;DHT22;2310;49.978;8.742;2023-06-04T02:34:29;15.20;64.90
4596;DHT22;2310;49.978;8.742;2023-06-04T02:38:30;15.10;65.30
4596;DHT22;2310;49.978;8.742;2023-06-04T02:42:32;15.10;67.80
4596;DHT22;2310;49.978;8.742;2023-06-04T02:46:33;15.00;69.40
4596;DHT22;2310;49.978;8.742;2023-06-04T02:50:34;14.80;71.80
4596;DHT22;2310;49.978;8.742;2023-06-04T02:54:36;14.80;74.80
4596;DHT22;2310;49.978;8.742;2023-06-04T02:58:37;14.80;74.80
4596;DHT22;2310;49.978;8.742;2023-06-04T03:02:43;14.90;75.20
4596;DHT22;2310;49.978;8.742;2023-06-04T03:06:45;14.90;76.00
4596;DHT22;2310;49.978;8.742;2023-06-04T03:10:47;14.90;76.60
4596;DHT22;2310;49.978;8.742;2023-06-04T03:14:48;14.90;78.00
4596;DHT22;2310;49.978;8.742;2023-06-04T03:18:49;15.00;78.50
4596;DHT22;2310;49.978;8.742;2023-06-04T03:22:51;14.80;80.40
4596;DHT22;2310;49.978;8.742;2023-06-04T03:26:52;14.60;84.50
4596;DHT22;2310;49.978;8.742;2023-06-04T03:30:54;14.50;87.20
4596;DHT22;2310;49.978;8.742;2023-06-04T03:34:55;14.40;90.00
4596;DHT22;2310;49.978;8.742;2023-06-04T03:38:57;14.50;90.00
4596;DHT22;2310;49.978;8.742;2023-06-04T03:42:59;14.30;92.40
4596;DHT22;2310;49.978;8.742;2023-06-04T03:47:01;14.30;92.60
4596;DHT22;2310;49.978;8.742;2023-06-04T03:51:02;14.50;91.70
4596;DHT22;2310;49.978;8.742;2023-06-04T03:55:04;14.60;92.30
4596;DHT22;2310;49.978;8.742;2023-06-04T03:59:05;14.60;91.00
4596;DHT22;2310;49.978;8.742;2023-06-04T04:03:06;14.60;91.40
4596;DHT22;2310;49.978;8.742;2023-06-04T04:07:10;14.60;91.40
4596;DHT22;2310;49.978;8.742;2023-06-04T04:11:13;14.60;91.10
4596;DHT22;2310;49.978;8.742;2023-06-04T04:15:15;14.60;92.20
4596;DHT22;2310;49.978;8.742;2023-06-04T04:19:18;14.80;90.10
4596;DHT22;2310;49.978;8.742;2023-06-04T04:23:19;14.70;90.30
4596;DHT22;2310;49.978;8.742;2023-06-04T04:27:20;14.80;90.50
4596;DHT22;2310;49.978;8.742;2023-06-04T04:31:22;15.00;90.70
4596;DHT22;2310;49.978;8.742;2023-06-04T04:35:24;15.30;85.00
4596;DHT22;2310;49.978;8.742;2023-06-04T04:39:25;15.30;83.20
4596;DHT22;2310;49.978;8.742;2023-06-04T04:43:34;15.40;84.00
4596;DHT22;2310;49.978;8.742;2023-06-04T04:51:08;16.00;77.50
4596;DHT22;2310;49.978;8.742;2023-06-04T04:55:10;16.20;74.40
4596;DHT22;2310;49.978;8.742;2023-06-04T04:59:13;16.50;71.20
4596;DHT22;2310;49.978;8.742;2023-06-04T05:03:14;16.50;73.40
4596;DHT22;2310;49.978;8.742;2023-06-04T05:07:15;16.40;71.20
4596;DHT22;2310;49.978;8.742;2023-06-04T05:11:17;16.40;72.70
4596;DHT22;2310;49.978;8.742;2023-06-04T05:15:18;16.90;68.90
4596;DHT22;2310;49.978;8.742;2023-06-04T05:19:20;17.20;65.10
4596;DHT22;2310;49.978;8.742;2023-06-04T05:23:22;17.30;66.80
4596;DHT22;2310;49.978;8.742;2023-06-04T05:27:23;17.50;65.10
4596;DHT22;2310;49.978;8.742;2023-06-04T05:31:24;17.80;63.70
4596;DHT22;2310;49.978;8.742;2023-06-04T05:35:27;18.10;61.50
4596;DHT22;2310;49.978;8.742;2023-06-04T05:39:28;17.90;61.30
4596;DHT22;2310;49.978;8.742;2023-06-04T05:43:30;17.80;59.70
4596;DHT22;2310;49.978;8.742;2023-06-04T05:47:31;17.70;63.10
4596;DHT22;2310;49.978;8.742;2023-06-04T05:51:32;17.60;62.30
4596;DHT22;2310;49.978;8.742;2023-06-04T05:55:34;17.50;64.40
4596;DHT22;2310;49.978;8.742;2023-06-04T05:59:35;17.70;65.00
4596;DHT22;2310;49.978;8.742;2023-06-04T06:03:36;18.00;63.40
4596;DHT22;2310;49.978;8.742;2023-06-04T06:07:38;18.30;62.00
4596;DHT22;2310;49.978;8.742;2023-06-04T06:11:39;18.70;61.50
4596;DHT22;2310;49.978;8.742;2023-06-04T06:15:40;18.30;58.60
4596;DHT22;2310;49.978;8.742;2023-06-04T06:19:42;18.10;59.30
4596;DHT22;2310;49.978;8.742;2023-06-04T06:23:43;17.90;60.60
4596;DHT22;2310;49.978;8.742;2023-06-04T06:27:44;18.00;60.10
4596;DHT22;2310;49.978;8.742;2023-06-04T06:31:46;17.90;59.50
4596;DHT22;2310;49.978;8.742;2023-06-04T06:35:48;18.10;59.20
4596;DHT22;2310;49.978;8.742;2023-06-04T06:39:49;18.30;58.30
4596;DHT22;2310;49.978;8.742;2023-06-04T06:43:51;18.50;58.70
4596;DHT22;2310;49.978;8.742;2023-06-04T06:47:52;18.80;56.80
4596;DHT22;2310;49.978;8.742;2023-06-04T06:51:53;18.70;55.40
4596;DHT22;2310;49.978;8.742;2023-06-04T06:55:55;18.60;53.00
4596;DHT22;2310;49.978;8.742;2023-06-04T06:59:56;18.60;56.00
4596;DHT22;2310;49.978;8.742;2023-06-04T07:03:58;18.80;55.00
4596;DHT22;2310;49.978;8.742;2023-06-04T07:07:59;18.70;52.90
4596;DHT22;2310;49.978;8.742;2023-06-04T07:12:02;18.70;55.20
4596;DHT22;2310;49.978;8.742;2023-06-04T07:16:03;18.70;53.80
4596;DHT22;2310;49.978;8.742;2023-06-04T07:20:06;18.60;54.90
4596;DHT22;2310;49.978;8.742;2023-06-04T07:24:08;18.70;56.50
4596;DHT22;2310;49.978;8.742;2023-06-04T07:28:10;19.10;54.90
4596;DHT22;2310;49.978;8.742;2023-06-04T07:32:12;19.00;54.80
4596;DHT22;2310;49.978;8.742;2023-06-04T07:36:13;19.30;57.10
4596;DHT22;2310;49.978;8.742;2023-06-04T07:40:16;19.90;56.00
4596;DHT22;2310;49.978;8.742;2023-06-04T07:44:17;20.20;56.60
4596;DHT22;2310;49.978;8.742;2023-06-04T07:48:19;20.50;52.60
4596;DHT22;2310;49.978;8.742;2023-06-04T07:52:20;20.60;50.50
4596;DHT22;2310;49.978;8.742;2023-06-04T07:56:21;20.40;50.80
4596;DHT22;2310;49.978;8.742;2023-06-04T08:00:23;20.50;50.00
4596;DHT22;2310;49.978;8.742;2023-06-04T08:04:25;20.60;50.20
4596;DHT22;2310;49.978;8.742;2023-06-04T08:08:26;20.50;48.60
4596;DHT22;2310;49.978;8.742;2023-06-04T08:12:28;20.70;50.60
4596;DHT22;2310;49.978;8.742;2023-06-04T08:16:31;20.80;49.00
4596;DHT22;2310;49.978;8.742;2023-06-04T08:20:32;20.90;48.50
4596;DHT22;2310;49.978;8.742;2023-06-04T08:24:34;21.30;47.40
4596;DHT22;2310;49.978;8.742;2023-06-04T08:28:35;21.80;47.30
4596;DHT22;2310;49.978;8.742;2023-06-04T08:32:39;21.80;44.80
4596;DHT22;2310;49.978;8.742;2023-06-04T08:36:41;22.30;45.00
4596;DHT22;2310;49.978;8.742;2023-06-04T08:40:42;22.40;45.10
4596;DHT22;2310;49.978;8.742;2023-06-04T08:44:45;22.60;43.90
4596;DHT22;2310;49.978;8.742;2023-06-04T08:48:48;23.20;43.60
4596;DHT22;2310;49.978;8.742;2023-06-04T08:52:54;23.30;43.00
4596;DHT22;2310;49.978;8.742;2023-06-04T08:56:57;23.50;43.00
4596;DHT22;2310;49.978;8.742;2023-06-04T09:01:00;24.20;41.20
4596;DHT22;2310;49.978;8.742;2023-06-04T09:05:03;24.20;40.50
4596;DHT22;2310;49.978;8.742;2023-06-04T09:09:08;24.50;39.50
4596;DHT22;2310;49.978;8.742;2023-06-04T09:13:13;24.30;38.50
4596;DHT22;2310;49.978;8.742;2023-06-04T09:17:14;24.70;38.30
4596;DHT22;2310;49.978;8.742;2023-06-04T09:21:16;25.40;39.20
4596;DHT22;2310;49.978;8.742;2023-06-04T09:25:22;25.80;38.40
4596;DHT22;2310;49.978;8.742;2023-06-04T09:29:24;26.30;37.10
4596;DHT22;2310;49.978;8.742;2023-06-04T09:33:25;26.30;35.60
4596;DHT22;2310;49.978;8.742;2023-06-04T09:37:27;25.90;34.40
4596;DHT22;2310;49.978;8.742;2023-06-04T09:41:29;26.10;35.60
4596;DHT22;2310;49.978;8.742;2023-06-04T09:45:32;26.30;35.20
4596;DHT22;2310;49.978;8.742;2023-06-04T09:49:45;26.30;34.70
4596;DHT22;2310;49.978;8.742;2023-06-04T09:53:54;26.70;35.90
4596;DHT22;2310;49.978;8.742;2023-06-04T09:57:57;27.10;34.40
4596;DHT22;2310;49.978;8.742;2023-06-04T10:02:00;27.30;32.40
4596;DHT22;2310;49.978;8.742;2023-06-04T10:06:03;27.80;32.60
4596;DHT22;2310;49.978;8.742;2023-06-04T10:10:06;27.90;32.10
4596;DHT22;2310;49.978;8.742;2023-06-04T10:14:24;28.30;31.00
4596;DHT22;2310;49.978;8.742;2023-06-04T10:18:27;28.00;30.40
4596;DHT22;2310;49.978;8.742;2023-06-04T10:22:30;28.10;30.10
4596;DHT22;2310;49.978;8.742;2023-06-04T10:26:33;28.00;29.10
4596;DHT22;2310;49.978;8.742;2023-06-04T10:30:36;27.90;29.10
4596;DHT22;2310;49.978;8.742;2023-06-04T10:34:37;28.00;29.70
4596;DHT22;2310;49.978;8.742;2023-06-04T10:38:44;27.70;30.30
4596;DHT22;2310;49.978;8.742;2023-06-04T10:42:45;27.90;29.80
4596;DHT22;2310;49.978;8.742;2023-06-04T10:46:46;27.90;29.40
4596;DHT22;2310;49.978;8.742;2023-06-04T10:50:52;28.60;29.10
4596;DHT22;2310;49.978;8.742;2023-06-04T10:55:02;28.80;28.70
4596;DHT22;2310;49.978;8.742;2023-06-04T10:58:59;28.50;28.60
4596;DHT22;2310;49.978;8.742;2023-06-04T11:03:01;28.40;28.80
4596;DHT22;2310;49.978;8.742;2023-06-04T11:07:05;28.90;28.80
4596;DHT22;2310;49.978;8.742;2023-06-04T11:11:14;29.60;28.00
4596;DHT22;2310;49.978;8.742;2023-06-04T11:15:16;28.40;27.30
4596;DHT22;2310;49.978;8.742;2023-06-04T11:19:18;28.70;28.30
4596;DHT22;2310;49.978;8.742;2023-06-04T11:23:19;29.10;28.10
4596;DHT22;2310;49.978;8.742;2023-06-04T11:27:21;29.10;27.20
4596;DHT22;2310;49.978;8.742;2023-06-04T11:31:25;29.20;26.60
4596;DHT22;2310;49.978;8.742;2023-06-04T11:35:26;29.00;27.90
4596;DHT22;2310;49.978;8.742;2023-06-04T11:39:34;29.40;27.60
4596;DHT22;2310;49.978;8.742;2023-06-04T11:43:32;29.30;26.60
4596;DHT22;2310;49.978;8.742;2023-06-04T11:47:36;28.90;26.10
4596;DHT22;2310;49.978;8.742;2023-06-04T11:51:37;29.30;28.10
4596;DHT22;2310;49.978;8.742;2023-06-04T11:55:39;29.20;26.90
4596;DHT22;2310;49.978;8.742;2023-06-04T11:59:41;28.80;26.60
4596;DHT22;2310;49.978;8.742;2023-06-04T12:03:42;28.90;26.60
4596;DHT22;2310;49.978;8.742;2023-06-04T12:07:44;28.40;26.00
4596;DHT22;2310;49.978;8.742;2023-06-04T12:11:46;28.90;27.00
4596;DHT22;2310;49.978;8.742;2023-06-04T12:15:55;29.30;27.10
4596;DHT22;2310;49.978;8.742;2023-06-04T12:19:54;29.70;25.80
4596;DHT22;2310;49.978;8.742;2023-06-04T12:24:08;29.40;24.70
4596;DHT22;2310;49.978;8.742;2023-06-04T12:28:17;28.60;25.10
4596;DHT22;2310;49.978;8.742;2023-06-04T12:32:19;28.50;25.10
4596;DHT22;2310;49.978;8.742;2023-06-04T12:36:20;28.40;26.60
4596;DHT22;2310;49.978;8.742;2023-06-04T12:40:21;28.60;25.70
4596;DHT22;2310;49.978;8.742;2023-06-04T12:44:23;28.50;25.50
4596;DHT22;2310;49.978;8.742;2023-06-04T12:48:24;29.10;25.10
4596;DHT22;2310;49.978;8.742;2023-06-04T12:52:25;28.90;24.40
4596;DHT22;2310;49.978;8.742;2023-06-04T12:56:27;28.10;26.40
4596;DHT22;2310;49.978;8.742;2023-06-04T13:00:28;28.30;26.50
4596;DHT22;2310;49.978;8.742;2023-06-04T13:04:29;28.40;25.20
4596;DHT22;2310;49.978;8.742;2023-06-04T13:08:31;28.60;25.50
4596;DHT22;2310;49.978;8.742;2023-06-04T13:12:33;28.40;26.50
4596;DHT22;2310;49.978;8.742;2023-06-04T13:16:34;27.80;25.60
4596;DHT22;2310;49.978;8.742;2023-06-04T13:20:39;27.80;25.90
4596;DHT22;2310;49.978;8.742;2023-06-04T13:24:41;27.90;26.30
4596;DHT22;2310;49.978;8.742;2023-06-04T13:28:42;28.00;25.70
4596;DHT22;2310;49.978;8.742;2023-06-04T13:32:43;28.70;25.20
4596;DHT22;2310;49.978;8.742;2023-06-04T13:36:45;28.90;26.60
4596;DHT22;2310;49.978;8.742;2023-06-04T13:40:46;29.00;26.20
4596;DHT22;2310;49.978;8.742;2023-06-04T13:44:47;29.30;25.20
4596;DHT22;2310;49.978;8.742;2023-06-04T13:48:49;29.40;25.20
4596;DHT22;2310;49.978;8.742;2023-06-04T13:52:50;28.70;23.90
4596;DHT22;2310;49.978;8.742;2023-06-04T13:56:52;29.00;25.70
4596;DHT22;2310;49.978;8.742;2023-06-04T14:00:53;29.20;25.80
4596;DHT22;2310;49.978;8.742;2023-06-04T14:04:55;29.50;25.90
4596;DHT22;2310;49.978;8.742;2023-06-04T14:08:56;29.60;24.30
4596;DHT22;2310;49.978;8.742;2023-06-04T14:12:57;29.30;25.30
4596;DHT22;2310;49.978;8.742;2023-06-04T14:16:59;29.20;26.00
4596;DHT22;2310;49.978;8.742;2023-06-04T14:21:00;28.90;26.40
4596;DHT22;2310;49.978;8.742;2023-06-04T14:25:07;28.80;26.40
4596;DHT22;2310;49.978;8.742;2023-06-04T14:29:08;28.60;26.20
4596;DHT22;2310;49.978;8.742;2023-06-04T14:33:09;28.60;25.80
4596;DHT22;2310;49.978;8.742;2023-06-04T14:37:11;28.80;25.80
4596;DHT22;2310;49.978;8.742;2023-06-04T14:41:12;28.50;26.10
4596;DHT22;2310;49.978;8.742;2023-06-04T14:45:13;28.50;26.00
4596;DHT22;2310;49.978;8.742;2023-06-04T14:49:15;28.90;26.30
4596;DHT22;2310;49.978;8.742;2023-06-04T14:53:16;29.20;26.40
4596;DHT22;2310;49.978;8.742;2023-06-04T14:57:17;29.20;26.30
4596;DHT22;2310;49.978;8.742;2023-06-04T15:01:20;29.00;26.00
4596;DHT22;2310;49.978;8.742;2023-06-04T15:05:23;29.00;24.90
4596;DHT22;2310;49.978;8.742;2023-06-04T15:09:24;28.60;25.70
4596;DHT22;2310;49.978;8.742;2023-06-04T15:13:26;28.40;26.00
4596;DHT22;2310;49.978;8.742;2023-06-04T15:17:27;28.20;26.00
4596;DHT22;2310;49.978;8.742;2023-06-04T15:21:29;28.40;26.90
4596;DHT22;2310;49.978;8.742;2023-06-04T15:25:30;28.60;26.60
4596;DHT22;2310;49.978;8.742;2023-06-04T15:29:31;28.60;27.30
4596;DHT22;2310;49.978;8.742;2023-06-04T15:33:32;28.50;26.20
4596;DHT22;2310;49.978;8.742;2023-06-04T15:37:34;28.10;26.20
4596;DHT22;2310;49.978;8.742;2023-06-04T15:41:35;28.20;26.40
4596;DHT22;2310;49.978;8.742;2023-06-04T15:45:36;28.40;26.50
4596;DHT22;2310;49.978;8.742;2023-06-04T15:49:38;28.10;27.00
4596;DHT22;2310;49.978;8.742;2023-06-04T15:53:39;27.70;26.90
4596;DHT22;2310;49.978;8.742;2023-06-04T15:57:40;27.70;27.40
4596;DHT22;2310;49.978;8.742;2023-06-04T16:01:42;27.60;27.60
4596;DHT22;2310;49.978;8.742;2023-06-04T16:05:44;27.90;28.00
4596;DHT22;2310;49.978;8.742;2023-06-04T16:09:45;28.00;27.40
4596;DHT22;2310;49.978;8.742;2023-06-04T16:13:46;27.70;27.90
4596;DHT22;2310;49.978;8.742;2023-06-04T16:17:47;27.70;27.80
4596;DHT22;2310;49.978;8.742;2023-06-04T16:21:49;27.90;28.00
4596;DHT22;2310;49.978;8.742;2023-06-04T16:25:51;27.50;27.80
4596;DHT22;2310;49.978;8.742;2023-06-04T16:29:53;27.40;27.30
4596;DHT22;2310;49.978;8.742;2023-06-04T16:33:56;27.20;28.00
4596;DHT22;2310;49.978;8.742;2023-06-04T16:37:58;27.20;28.60
4596;DHT22;2310;49.978;8.742;2023-06-04T16:42:00;27.20;28.00
4596;DHT22;2310;49.978;8.742;2023-06-04T16:46:06;27.20;27.90
4596;DHT22;2310;49.978;8.742;2023-06-04T16:50:10;27.10;28.20
4596;DHT22;2310;49.978;8.742;2023-06-04T16:54:11;27.00;28.40
4596;DHT22;2310;49.978;8.742;2023-06-04T16:58:14;27.00;28.60
4596;DHT22;2310;49.978;8.742;2023-06-04T17:02:16;27.10;28.20
4596;DHT22;2310;49.978;8.742;2023-06-04T17:06:19;26.90;28.40
4596;DHT22;2310;49.978;8.742;2023-06-04T17:10:27;26.50;28.70
4596;DHT22;2310;49.978;8.742;2023-06-04T17:14:27;26.60;29.00
4596;DHT22;2310;49.978;8.742;2023-06-04T17:18:29;26.50;29.30
4596;DHT22;2310;49.978;8.742;2023-06-04T17:22:30;26.50;29.80
4596;DHT22;2310;49.978;8.742;2023-06-04T17:26:31;26.30;29.70
4596;DHT22;2310;49.978;8.742;2023-06-04T17:30:32;26.20;29.90
4596;DHT22;2310;49.978;8.742;2023-06-04T17:34:34;25.80;29.50
4596;DHT22;2310;49.978;8.742;2023-06-04T17:38:35;25.60;29.70
4596;DHT22;2310;49.978;8.742;2023-06-04T17:42:38;25.40;30.00
4596;DHT22;2310;49.978;8.742;2023-06-04T17:46:39;25.40;30.30
4596;DHT22;2310;49.978;8.742;2023-06-04T17:50:40;25.20;30.40
4596;DHT22;2310;49.978;8.742;2023-06-04T17:54:41;25.20;30.60
4596;DHT22;2310;49.978;8.742;2023-06-04T17:58:44;25.30;30.60
4596;DHT22;2310;49.978;8.742;2023-06-04T18:02:45;25.30;31.00
4596;DHT22;2310;49.978;8.742;2023-06-04T18:06:46;25.30;31.10
4596;DHT22;2310;49.978;8.742;2023-06-04T18:10:48;25.20;31.20
4596;DHT22;2310;49.978;8.742;2023-06-04T18:14:49;24.90;31.20
4596;DHT22;2310;49.978;8.742;2023-06-04T18:18:50;24.80;31.60
4596;DHT22;2310;49.978;8.742;2023-06-04T18:22:51;24.80;31.70
4596;DHT22;2310;49.978;8.742;2023-06-04T18:26:56;24.90;31.90
4596;DHT22;2310;49.978;8.742;2023-06-04T18:30:59;24.90;31.40
4596;DHT22;2310;49.978;8.742;2023-06-04T18:35:01;24.70;31.00
4596;DHT22;2310;49.978;8.742;2023-06-04T18:39:02;24.50;31.80
4596;DHT22;2310;49.978;8.742;2023-06-04T18:43:04;24.20;31.50
4596;DHT22;2310;49.978;8.742;2023-06-04T18:47:05;24.20;31.90
4596;DHT22;2310;49.978;8.742;2023-06-04T18:51:07;23.90;32.10
4596;DHT22;2310;49.978;8.742;2023-06-04T18:55:08;23.90;32.00
4596;DHT22;2310;49.978;8.742;2023-06-04T18:59:12;23.70;32.00
4596;DHT22;2310;49.978;8.742;2023-06-04T19:03:14;23.70;32.50
4596;DHT22;2310;49.978;8.742;2023-06-04T19:07:15;23.60;32.40
4596;DHT22;2310;49.978;8.742;2023-06-04T19:11:16;23.70;32.90
4596;DHT22;2310;49.978;8.742;2023-06-04T19:15:17;23.70;32.90
4596;DHT22;2310;49.978;8.742;2023-06-04T19:19:20;23.60;33.10
4596;DHT22;2310;49.978;8.742;2023-06-04T19:23:21;23.60;33.30
4596;DHT22;2310;49.978;8.742;2023-06-04T19:27:22;23.40;33.10
4596;DHT22;2310;49.978;8.742;2023-06-04T19:31:23;23.50;33.60
4596;DHT22;2310;49.978;8.742;2023-06-04T19:35:26;23.20;33.40
4596;DHT22;2310;49.978;8.742;2023-06-04T19:39:28;23.20;33.90
4596;DHT22;2310;49.978;8.742;2023-06-04T19:43:29;23.00;34.00
4596;DHT22;2310;49.978;8.742;2023-06-04T19:47:30;22.90;34.50
4596;DHT22;2310;49.978;8.742;2023-06-04T19:51:32;22.80;34.80
4596;DHT22;2310;49.978;8.742;2023-06-04T19:55:33;22.70;34.70
4596;DHT22;2310;49.978;8.742;2023-06-04T19:59:34;22.60;34.80
4596;DHT22;2310;49.978;8.742;2023-06-04T20:03:36;22.40;34.90
4596;DHT22;2310;49.978;8.742;2023-06-04T20:07:38;22.40;35.10
4596;DHT22;2310;49.978;8.742;2023-06-04T20:11:39;22.40;34.90
4596;DHT22;2310;49.978;8.742;2023-06-04T20:15:40;22.20;35.20
4596;DHT22;2310;49.978;8.742;2023-06-04T20:19:43;22.30;35.20
4596;DHT22;2310;49.978;8.742;2023-06-04T20:23:44;21.80;34.80
4596;DHT22;2310;49.978;8.742;2023-06-04T20:27:49;21.60;35.20
4596;DHT22;2310;49.978;8.742;2023-06-04T20:31:50;21.30;35.50
4596;DHT22;2310;49.978;8.742;2023-06-04T20:35:52;21.20;35.80
4596;DHT22;2310;49.978;8.742;2023-06-04T20:39:53;21.00;37.00
4596;DHT22;2310;49.978;8.742;2023-06-04T20:43:54;20.90;36.40
4596;DHT22;2310;49.978;8.742;2023-06-04T20:47:57;20.90;36.60
4596;DHT22;2310;49.978;8.742;2023-06-04T20:51:59;20.80;37.00
4596;DHT22;2310;49.978;8.742;2023-06-04T20:56:01;20.80;37.00
4596;DHT22;2310;49.978;8.742;2023-06-04T21:00:03;20.70;37.00
4596;DHT22;2310;49.978;8.742;2023-06-04T21:04:04;20.50;37.20
4596;DHT22;2310;49.978;8.742;2023-06-04T21:08:06;20.60;37.40
4596;DHT22;2310;49.978;8.742;2023-06-04T21:12:07;20.30;37.60
4596;DHT22;2310;49.978;8.742;2023-06-04T21:16:09;20.10;37.80
4596;DHT22;2310;49.978;8.742;2023-06-04T21:20:10;20.00;37.90
4596;DHT22;2310;49.978;8.742;2023-06-04T21:24:11;19.90;38.00
4596;DHT22;2310;49.978;8.742;2023-06-04T21:28:13;19.70;38.20
4596;DHT22;2310;49.978;8.742;2023-06-04T21:32:14;19.80;38.50
4596;DHT22;2310;49.978;8.742;2023-06-04T21:36:15;19.70;38.60
4596;DHT22;2310;49.978;8.742;2023-06-04T21:40:17;19.60;38.50
4596;DHT22;2310;49.978;8.742;2023-06-04T21:44:18;19.70;38.80
4596;DHT22;2310;49.978;8.742;2023-06-04T21:48:20;19.60;38.60
4596;DHT22;2310;49.978;8.742;2023-06-04T21:52:21;19.60;38.80
4596;DHT22;2310;49.978;8.742;2023-06-04T21:56:24;19.60;38.90
4596;DHT22;2310;49.978;8.742;2023-06-04T22:00:27;19.50;38.90
4596;DHT22;2310;49.978;8.742;2023-06-04T22:04:28;19.50;39.30
4596;DHT22;2310;49.978;8.742;2023-06-04T22:08:29;19.50;39.50
4596;DHT22;2310;49.978;8.742;2023-06-04T22:12:30;19.40;39.30
4596;DHT22;2310;49.978;8.742;2023-06-04T22:16:31;19.50;39.50
4596;DHT22;2310;49.978;8.742;2023-06-04T22:20:33;19.50;39.50
4596;DHT22;2310;49.978;8.742;2023-06-04T22:24:34;19.50;39.20
4596;DHT22;2310;49.978;8.742;2023-06-04T22:28:36;19.40;39.20
4596;DHT22;2310;49.978;8.742;2023-06-04T22:32:37;19.30;39.40
4596;DHT22;2310;49.978;8.742;2023-06-04T22:36:38;19.30;39.70
4596;DHT22;2310;49.978;8.742;2023-06-04T22:40:40;19.30;39.60
4596;DHT22;2310;49.978;8.742;2023-06-04T22:44:41;19.20;39.60
4596;DHT22;2310;49.978;8.742;2023-06-04T22:48:42;19.30;39.60
4596;DHT22;2310;49.978;8.742;2023-06-04T22:52:43;19.40;39.50
4596;DHT22;2310;49.978;8.742;2023-06-04T22:56:46;19.40;39.30
4596;DHT22;2310;49.978;8.742;2023-06-04T23:00:47;19.30;39.70
4596;DHT22;2310;49.978;8.742;2023-06-04T23:04:52;19.30;39.70
4596;DHT22;2310;49.978;8.742;2023-06-04T23:08:55;19.30;40.00
4596;DHT22;2310;49.978;8.742;2023-06-04T23:12:56;19.20;40.00
4596;DHT22;2310;49.978;8.742;2023-06-04T23:16:58;19.20;40.20
4596;DHT22;2310;49.978;8.742;2023-06-04T23:20:59;19.20;40.80
4596;DHT22;2310;49.978;8.742;2023-06-04T23:25:00;19.20;40.30
4596;DHT22;2310;49.978;8.742;2023-06-04T23:29:02;19.10;40.50
4596;DHT22;2310;49.978;8.742;2023-06-04T23:33:03;18.90;40.30
4596;DHT22;2310;49.978;8.742;2023-06-04T23:37:05;18.80;40.50
4596;DHT22;2310;49.978;8.742;2023-06-04T23:41:07;18.70;41.00
4596;DHT22;2310;49.978;8.742;2023-06-04T23:45:10;18.80;41.10
4596;DHT22;2310;49.978;8.742;2023-06-04T23:49:13;18.80;41.30
4596;DHT22;2310;49.978;8.742;2023-06-04T23:53:15;18.70;42.30
4596;DHT22;2310;49.978;8.742;2023-06-04T23:57:20;18.60;41.50
